Java, South Dakota
Current Conditions -  °F | °C
As of 4:52 PM on Wednesday 17 Dec 2014 (Local Time) from KMBG Reporting Station
Overcast Overcast  
Wind Chill:   Ceiling: 9000
Heat Index: 20°   Visibility: 10mi
Dew Point: 12°   Wind: 12mph
Humidity: 71%   Direction: 130°SE
Pressure: 30.16"   Gusts: NA
Location:  45.5°N, 99.89°W
Report Text: KMBG 172252Z AUTO 13010KT 10SM OVC090 M07/M11 A3016 RMK AO2 SLP242 T10671111
Loading
Personal Weather Stations






























Interactive Weather Map New forecast layout! Learn more

10-Day Weather Forecast

Advertisements
Track Severe Weather on mobile